CANO2: Clear Boggy Creek abv Caney Creek nr Caney, OK

Data processed at Wed May 22 2019 23:50


All information presented herein is the property of the government of the United States of America and may be revised or deleted at any time without prior notice.
Dissemination of this information without the expressed written consent of the Public Affairs Office, Tulsa District U.S. Army Corps of Engineers is strictly prohibited.
These data are gathered electronically and, as presented, have not undergone any form of quality control. These data are not guaranteed to be valid or correct.
Go to home page.
Go to station list.
Go to home page.

Upstream stations:

Downstream station:
Previous Day
Next Day
Current Day
    
SHEF ID:       CANO2     Clear Boggy Creek abv Caney Cree
STATION TYPE:  
Regulating: Stage =    19.00, Flow =     2600

                STAGE  RIV-FLOW  BAT-LOAD
                   ft       cfs      volt
              Ccp-Rev   Ccp-Rev   Ccp-Rev
(US/Central)
05/22 00:00     20.35      3100     12.77
05/22 01:00     20.65      3210     12.71
05/22 02:00     20.90      3310     12.71
05/22 03:00     21.07      3370     12.71
05/22 04:00     21.20      3420     12.71
05/22 05:00     21.31      3460     12.65
05/22 06:00     21.36      3480     12.65
05/22 07:00     21.45      3510     12.65
05/22 08:00     21.50      3530     12.83
05/22 09:00     21.51      3540     13.12
05/22 10:00     21.60      3570     13.36
05/22 11:00     21.61      3580     13.59
05/22 12:00     21.68      3600     13.59
05/22 13:00     21.71      3610     13.42
05/22 14:00     21.76      3630     13.36
05/22 15:00     21.78      3640     13.24
05/22 16:00     21.78      3640     13.18
05/22 17:00     21.74      3630     13.18
05/22 18:00     21.68      3600     13.18
05/22 19:00     21.60      3570     13.18
05/22 20:00     21.51      3540     13.07
05/22 21:00     21.33      3470     12.89
05/22 22:00     21.19      3420     12.83
05/22 23:00      ----      ----      ----